createdAt,value
2018-08-13T00:01:26.606Z,50.70
2018-08-13T00:03:54.667Z,50.10
2018-08-13T00:06:22.804Z,47.80
2018-08-13T00:08:50.852Z,47.20
2018-08-13T00:11:18.900Z,46.80
2018-08-13T00:13:46.949Z,46.30
2018-08-13T00:16:14.996Z,46.30
2018-08-13T00:18:43.036Z,46.30
2018-08-13T00:21:11.099Z,46.10
2018-08-13T00:23:39.165Z,46.90
2018-08-13T00:26:07.215Z,46.20
2018-08-13T00:28:35.268Z,46.10
2018-08-13T00:31:03.326Z,46.50
2018-08-13T00:33:31.372Z,47.80
2018-08-13T00:35:59.435Z,49.10
2018-08-13T00:38:27.471Z,48.70
2018-08-13T00:40:55.520Z,48.50
2018-08-13T00:43:23.561Z,48.90
2018-08-13T00:45:51.632Z,49.20
2018-08-13T00:48:19.680Z,49.30
2018-08-13T00:50:47.728Z,49.30
2018-08-13T00:53:15.782Z,49.70
2018-08-13T00:55:43.841Z,49.70
2018-08-13T00:58:11.969Z,49.50
2018-08-13T01:00:40.025Z,48.30
2018-08-13T01:03:08.143Z,47.70
2018-08-13T01:05:36.200Z,47.30
2018-08-13T01:08:04.264Z,47.40
2018-08-13T01:10:32.456Z,46.50
2018-08-13T01:13:00.508Z,46.10
2018-08-13T01:15:28.567Z,45.60
2018-08-13T01:17:56.608Z,45.50
2018-08-13T01:20:24.652Z,45.70
2018-08-13T01:22:52.780Z,45.50
2018-08-13T01:25:21.372Z,45.50
2018-08-13T01:27:49.420Z,45.80
2018-08-13T01:30:18.528Z,46.20
2018-08-13T01:32:46.595Z,46.40
2018-08-13T01:35:14.646Z,46.60
2018-08-13T01:37:42.692Z,47.00
2018-08-13T01:40:11.420Z,47.10
2018-08-13T01:42:39.484Z,47.40
2018-08-13T01:45:08.974Z,47.60
2018-08-13T01:47:37.149Z,47.80
2018-08-13T01:50:06.974Z,48.00
2018-08-13T01:52:35.025Z,48.00
2018-08-13T01:55:03.122Z,48.10
2018-08-13T01:57:31.176Z,48.30
2018-08-13T01:59:59.256Z,48.50
2018-08-13T02:02:27.293Z,48.60
2018-08-13T02:04:55.336Z,49.00
2018-08-13T02:07:23.451Z,48.70
2018-08-13T02:09:51.595Z,48.80
2018-08-13T02:12:19.697Z,48.90
2018-08-13T02:14:47.775Z,48.70
2018-08-13T02:17:15.821Z,48.90
2018-08-13T02:19:43.910Z,49.00
2018-08-13T02:22:11.959Z,49.00
2018-08-13T02:24:40.058Z,49.10
2018-08-13T02:27:08.139Z,49.30
2018-08-13T02:29:36.184Z,49.40
2018-08-13T02:32:04.261Z,49.60
2018-08-13T02:34:32.300Z,51.40
2018-08-13T02:37:00.343Z,52.00
2018-08-13T02:39:28.379Z,51.80
2018-08-13T02:41:56.410Z,52.90
2018-08-13T02:44:24.455Z,52.00
2018-08-13T02:46:52.590Z,51.60
2018-08-13T02:49:20.616Z,51.80
2018-08-13T02:51:48.653Z,51.60
2018-08-13T02:54:16.682Z,51.40
2018-08-13T02:56:44.727Z,51.20
2018-08-13T02:59:12.753Z,51.00
2018-08-13T03:01:41.465Z,50.80
2018-08-13T03:04:09.600Z,50.70
2018-08-13T03:06:37.677Z,50.70
2018-08-13T03:09:08.731Z,50.70
2018-08-13T03:11:36.787Z,50.70
2018-08-13T03:14:05.384Z,50.50
2018-08-13T03:16:33.429Z,50.90
2018-08-13T03:19:01.473Z,50.20
2018-08-13T03:21:29.516Z,50.00
2018-08-13T03:23:57.538Z,49.90
2018-08-13T03:26:25.575Z,50.00
2018-08-13T03:28:53.679Z,50.00
2018-08-13T03:31:21.714Z,50.00
2018-08-13T03:33:49.825Z,50.20
2018-08-13T03:36:17.885Z,50.20
2018-08-13T03:38:45.918Z,50.50
2018-08-13T03:41:13.968Z,50.70
2018-08-13T03:43:41.995Z,51.20
2018-08-13T03:46:10.046Z,53.10
2018-08-13T03:48:38.065Z,53.40
2018-08-13T03:51:06.095Z,53.80
2018-08-13T03:53:34.126Z,54.20
2018-08-13T03:56:02.199Z,54.70
2018-08-13T03:58:30.334Z,54.20
2018-08-13T04:00:58.380Z,54.10
2018-08-13T04:03:26.423Z,54.50
2018-08-13T04:05:54.545Z,54.30
2018-08-13T04:08:22.586Z,54.90
2018-08-13T04:10:50.635Z,55.10
2018-08-13T04:13:18.665Z,54.50
2018-08-13T04:15:46.707Z,54.70
2018-08-13T04:18:14.749Z,54.70
2018-08-13T04:20:42.803Z,54.40
2018-08-13T04:23:10.834Z,54.30
2018-08-13T04:25:38.893Z,53.90
2018-08-13T04:28:06.938Z,53.00
2018-08-13T04:30:35.043Z,53.00
2018-08-13T04:33:03.109Z,53.00
2018-08-13T04:35:31.168Z,52.10
2018-08-13T04:37:59.201Z,51.70
2018-08-13T04:40:27.230Z,51.70
2018-08-13T04:42:55.280Z,51.50
2018-08-13T04:45:23.447Z,50.20
2018-08-13T04:47:53.489Z,48.70
2018-08-13T04:50:21.648Z,47.50
2018-08-13T04:52:50.061Z,46.90
2018-08-13T04:55:18.709Z,46.10
2018-08-13T04:57:46.775Z,45.60
2018-08-13T05:00:14.817Z,44.70
2018-08-13T05:02:42.863Z,44.30
2018-08-13T05:05:11.717Z,43.90
2018-08-13T05:07:39.896Z,43.00
2018-08-13T05:10:09.188Z,42.70
2018-08-13T05:12:37.251Z,41.40
2018-08-13T05:15:06.147Z,40.70
2018-08-13T05:17:34.318Z,39.90
2018-08-13T05:20:02.353Z,39.10
2018-08-13T05:22:30.410Z,38.10
2018-08-13T05:24:58.436Z,37.70
2018-08-13T05:27:26.470Z,36.70
2018-08-13T05:29:54.525Z,36.50
2018-08-13T05:32:22.546Z,36.60
2018-08-13T05:34:50.583Z,36.20
2018-08-13T05:37:18.627Z,37.00
2018-08-13T05:39:46.667Z,35.40
2018-08-13T05:42:14.757Z,35.90
2018-08-13T05:44:42.899Z,35.50
2018-08-13T05:47:11.013Z,35.50
2018-08-13T05:49:39.041Z,36.60
2018-08-13T05:52:07.114Z,35.40
2018-08-13T05:54:35.149Z,34.30
2018-08-13T05:57:03.188Z,33.60
2018-08-13T05:59:31.233Z,33.10
2018-08-13T06:01:59.280Z,32.20
2018-08-13T06:04:27.349Z,31.10
2018-08-13T06:06:55.382Z,32.10
2018-08-13T06:09:23.507Z,32.10
2018-08-13T06:11:51.531Z,31.50
2018-08-13T06:14:19.581Z,31.20
2018-08-13T06:16:47.620Z,31.10
2018-08-13T06:19:15.657Z,29.70
2018-08-13T06:21:43.719Z,28.60
2018-08-13T06:24:11.772Z,28.50
2018-08-13T06:26:39.881Z,28.20
2018-08-13T06:29:08.067Z,27.60
2018-08-13T06:31:36.104Z,27.80
2018-08-13T06:34:04.220Z,27.00
2018-08-13T06:36:32.246Z,26.90
2018-08-13T06:39:00.288Z,26.60
2018-08-13T06:41:28.367Z,27.20
2018-08-13T06:43:56.479Z,27.50
2018-08-13T06:46:24.566Z,27.70
2018-08-13T06:48:52.589Z,27.20
2018-08-13T06:51:20.693Z,28.30
2018-08-13T06:53:48.776Z,28.30
2018-08-13T06:56:16.820Z,28.90
2018-08-13T06:58:44.841Z,28.80
2018-08-13T07:01:12.901Z,28.40
2018-08-13T07:03:40.951Z,28.50
2018-08-13T07:06:08.991Z,28.90
2018-08-13T07:08:37.081Z,29.30
2018-08-13T07:11:09.965Z,29.40
2018-08-13T07:13:38.037Z,29.10
2018-08-13T07:16:06.146Z,27.80
2018-08-13T07:18:34.187Z,27.20
2018-08-13T07:21:02.223Z,27.40
2018-08-13T07:23:30.262Z,27.40
2018-08-13T07:25:58.295Z,27.20
2018-08-13T07:28:26.354Z,27.10
2018-08-13T07:30:54.445Z,27.40
2018-08-13T07:33:22.609Z,27.90
2018-08-13T07:35:50.603Z,27.70
2018-08-13T07:38:18.637Z,27.60
2018-08-13T07:40:46.675Z,28.00
2018-08-13T07:43:14.899Z,27.30
2018-08-13T07:45:42.988Z,26.60
2018-08-13T07:48:10.999Z,26.30
2018-08-13T07:50:39.044Z,26.10
2018-08-13T07:53:07.194Z,26.80
2018-08-13T07:55:35.225Z,27.20
2018-08-13T07:58:03.262Z,27.20
2018-08-13T08:00:31.377Z,27.50
2018-08-13T08:02:59.464Z,28.10
2018-08-13T08:05:27.503Z,28.30
2018-08-13T08:07:55.555Z,28.60
2018-08-13T08:10:23.578Z,29.20
2018-08-13T08:12:51.615Z,28.60
2018-08-13T08:15:20.127Z,28.50
2018-08-13T08:17:48.157Z,27.40
2018-08-13T08:20:16.196Z,26.70
2018-08-13T08:22:44.229Z,26.20
2018-08-13T08:25:15.775Z,26.00
2018-08-13T08:27:44.260Z,26.40
2018-08-13T08:30:12.633Z,27.30
2018-08-13T08:32:40.676Z,27.20
2018-08-13T08:35:10.731Z,27.50
2018-08-13T08:37:39.113Z,27.10
2018-08-13T08:40:09.033Z,26.90
2018-08-13T08:42:37.281Z,26.10
2018-08-13T08:45:08.054Z,26.50
2018-08-13T08:47:36.205Z,27.00
2018-08-13T08:50:04.737Z,27.50
2018-08-13T08:52:32.813Z,27.90
2018-08-13T08:55:00.923Z,28.00
2018-08-13T08:57:29.092Z,28.20
2018-08-13T08:59:57.133Z,28.80
2018-08-13T09:02:25.157Z,29.60
2018-08-13T09:04:53.206Z,30.00
2018-08-13T09:07:21.235Z,30.10
2018-08-13T09:09:49.283Z,30.00
2018-08-13T09:12:17.321Z,30.30
2018-08-13T09:14:45.387Z,30.00
2018-08-13T09:17:13.464Z,29.30
2018-08-13T09:19:52.975Z,28.10
2018-08-13T09:22:32.629Z,27.60
2018-08-13T09:25:12.361Z,27.40
2018-08-13T09:27:51.861Z,27.30
2018-08-13T09:31:33.547Z,27.80
2018-08-13T09:34:15.413Z,28.70
2018-08-13T09:36:43.591Z,29.50
2018-08-13T09:39:11.662Z,30.50
2018-08-13T09:41:39.934Z,30.30
2018-08-13T09:44:07.993Z,30.50
2018-08-13T09:46:36.039Z,30.10
2018-08-13T09:49:04.340Z,30.00
2018-08-13T09:51:32.414Z,30.00
2018-08-13T09:54:00.493Z,30.00
2018-08-13T09:56:28.542Z,30.80
2018-08-13T09:58:56.572Z,31.60
2018-08-13T10:01:24.703Z,32.70
2018-08-13T10:03:52.726Z,34.00
2018-08-13T10:06:20.746Z,34.90
2018-08-13T10:08:48.789Z,35.90
2018-08-13T10:11:16.846Z,37.40
2018-08-13T10:13:44.879Z,37.90
2018-08-13T10:16:12.931Z,38.60
2018-08-13T10:18:40.997Z,39.60
2018-08-13T10:21:09.021Z,40.30
2018-08-13T10:23:37.062Z,40.90
2018-08-13T10:26:05.097Z,41.10
2018-08-13T10:28:33.132Z,41.70
2018-08-13T10:31:01.180Z,42.20
2018-08-13T10:33:29.201Z,42.90
2018-08-13T10:35:57.238Z,43.50
2018-08-13T10:38:25.353Z,44.20
2018-08-13T10:40:53.406Z,44.90
2018-08-13T10:43:21.620Z,45.70
2018-08-13T10:45:49.666Z,46.10
2018-08-13T10:48:17.693Z,46.60
2018-08-13T10:50:45.917Z,47.30
2018-08-13T10:53:13.937Z,47.80
2018-08-13T10:55:41.999Z,47.90
2018-08-13T10:58:10.048Z,48.20
2018-08-13T11:00:38.096Z,48.60
2018-08-13T11:03:06.153Z,48.90
2018-08-13T11:05:34.198Z,49.40
2018-08-13T11:08:02.341Z,48.90
2018-08-13T11:10:30.474Z,49.30
2018-08-13T11:12:58.604Z,49.30
2018-08-13T11:15:26.639Z,49.40
2018-08-13T11:17:54.669Z,50.10
2018-08-13T11:20:22.713Z,50.60
2018-08-13T11:22:50.836Z,50.90
2018-08-13T11:25:18.925Z,51.30
2018-08-13T11:27:46.912Z,51.80
2018-08-13T11:30:16.170Z,52.50
2018-08-13T11:32:44.338Z,53.80
2018-08-13T11:35:13.176Z,53.20
2018-08-13T11:37:41.302Z,54.10
2018-08-13T11:40:13.781Z,54.80
2018-08-13T11:42:41.987Z,55.60
2018-08-13T11:45:10.236Z,56.60
2018-08-13T11:47:39.027Z,57.00
2018-08-13T11:50:13.333Z,58.50
2018-08-13T11:52:41.602Z,60.20
2018-08-13T11:55:09.686Z,64.50
2018-08-13T11:57:37.766Z,68.00
2018-08-13T12:00:07.947Z,69.70
2018-08-13T12:02:36.238Z,71.50
2018-08-13T12:05:05.939Z,75.10
2018-08-13T12:07:33.978Z,76.40
2018-08-13T12:10:02.082Z,77.80
2018-08-13T12:12:30.161Z,79.70
2018-08-13T12:14:58.191Z,80.20
2018-08-13T12:17:26.248Z,81.60
2018-08-13T12:19:54.373Z,83.10
2018-08-13T12:22:22.401Z,85.00
2018-08-13T12:24:50.519Z,84.60
2018-08-13T12:27:18.564Z,85.20
2018-08-13T12:29:46.626Z,86.60
2018-08-13T12:32:14.947Z,86.80
2018-08-13T12:34:42.974Z,87.20
2018-08-13T12:37:11.039Z,86.80
2018-08-13T12:39:39.771Z,87.20
2018-08-13T12:42:08.859Z,87.40
2018-08-13T12:44:37.125Z,87.30
2018-08-13T12:47:06.275Z,87.80
2018-08-13T12:49:34.302Z,87.70
2018-08-13T12:52:02.347Z,89.60
2018-08-13T12:54:30.397Z,89.80
2018-08-13T12:56:58.544Z,88.20
2018-08-13T12:59:26.574Z,88.40
2018-08-13T13:01:54.623Z,88.10
2018-08-13T13:04:22.663Z,89.00
2018-08-13T13:06:50.693Z,87.90
2018-08-13T13:09:18.757Z,86.90
2018-08-13T13:11:47.216Z,86.10
2018-08-13T13:14:15.252Z,85.20
2018-08-13T13:16:43.291Z,85.40
2018-08-13T13:19:11.337Z,85.00
2018-08-13T13:21:39.418Z,84.80
2018-08-13T13:24:07.463Z,84.10
2018-08-13T13:26:35.937Z,83.30
2018-08-13T13:29:04.404Z,83.40
2018-08-13T13:31:32.474Z,82.30
2018-08-13T13:34:00.531Z,82.50
2018-08-13T13:36:28.554Z,81.50
2018-08-13T13:38:56.740Z,81.70
2018-08-13T13:41:24.762Z,81.70
2018-08-13T13:43:52.790Z,82.40
2018-08-13T13:46:20.860Z,83.40
2018-08-13T13:48:48.885Z,83.80
2018-08-13T13:51:17.522Z,83.70
2018-08-13T13:53:45.559Z,84.10
2018-08-13T13:56:13.624Z,84.40
2018-08-13T13:58:41.694Z,84.80
2018-08-13T14:01:09.734Z,85.40
2018-08-13T14:03:37.772Z,85.90
2018-08-13T14:06:05.833Z,85.90
2018-08-13T14:08:33.901Z,85.80
2018-08-13T14:11:01.958Z,86.00
2018-08-13T14:13:30.038Z,85.20
2018-08-13T14:15:58.109Z,86.60
2018-08-13T14:18:26.170Z,87.10
2018-08-13T14:20:54.209Z,88.00
2018-08-13T14:23:22.267Z,87.50
2018-08-13T14:25:50.290Z,88.30
2018-08-13T14:28:18.309Z,87.30
2018-08-13T14:30:46.359Z,86.60
2018-08-13T14:33:14.395Z,86.80
2018-08-13T14:35:42.465Z,85.80
2018-08-13T14:38:10.507Z,85.40
2018-08-13T14:40:38.531Z,83.30
2018-08-13T14:43:06.568Z,81.80
2018-08-13T14:45:34.613Z,80.40
2018-08-13T14:48:02.727Z,80.00
2018-08-13T14:50:30.750Z,79.40
2018-08-13T14:52:58.864Z,79.60
2018-08-13T14:55:26.914Z,79.50
2018-08-13T14:57:54.964Z,79.40
2018-08-13T15:00:26.441Z,80.00
2018-08-13T15:02:55.246Z,79.80
2018-08-13T15:05:23.277Z,80.50
2018-08-13T15:07:51.534Z,79.70
2018-08-13T15:10:24.599Z,79.50
2018-08-13T15:12:52.724Z,78.70
2018-08-13T15:15:20.703Z,78.40
2018-08-13T15:17:49.149Z,78.10
2018-08-13T15:20:18.816Z,77.10
2018-08-13T15:22:46.855Z,77.00
2018-08-13T15:25:14.897Z,76.30
2018-08-13T15:27:43.180Z,75.80
2018-08-13T15:30:13.437Z,75.30
2018-08-13T15:32:41.924Z,75.40
2018-08-13T15:35:09.938Z,75.10
2018-08-13T15:37:38.060Z,75.90
2018-08-13T15:40:07.044Z,74.80
2018-08-13T15:42:35.435Z,74.70
2018-08-13T15:45:03.886Z,74.70
2018-08-13T15:47:31.918Z,74.90
2018-08-13T15:49:59.952Z,73.90
2018-08-13T15:52:27.995Z,74.50
2018-08-13T15:54:56.019Z,73.60
2018-08-13T15:57:24.126Z,73.70
2018-08-13T15:59:52.154Z,74.10
2018-08-13T16:02:20.179Z,74.40
2018-08-13T16:04:48.205Z,74.90
2018-08-13T16:07:16.331Z,74.90
2018-08-13T16:09:44.401Z,75.20
2018-08-13T16:12:12.436Z,75.10
2018-08-13T16:14:40.447Z,74.90
2018-08-13T16:17:08.627Z,74.70
2018-08-13T16:19:36.657Z,74.60
2018-08-13T16:22:05.269Z,75.70
2018-08-13T16:24:33.750Z,76.10
2018-08-13T16:27:01.928Z,77.20
2018-08-13T16:29:29.981Z,76.50
2018-08-13T16:31:58.157Z,76.60
2018-08-13T16:34:26.217Z,77.10
2018-08-13T16:36:54.310Z,77.00
2018-08-13T16:39:22.381Z,76.30
2018-08-13T16:41:50.445Z,76.00
2018-08-13T16:44:18.485Z,76.10
2018-08-13T16:46:46.606Z,76.30
2018-08-13T16:49:14.644Z,76.60
2018-08-13T16:51:42.671Z,77.90
2018-08-13T16:54:10.757Z,77.60
2018-08-13T16:56:38.806Z,78.10
2018-08-13T16:59:06.803Z,78.80
2018-08-13T17:01:34.820Z,79.50
2018-08-13T17:04:02.867Z,80.30
2018-08-13T17:06:30.904Z,80.70
2018-08-13T17:08:58.936Z,82.50
2018-08-13T17:11:31.223Z,83.20
2018-08-13T17:13:59.329Z,84.00
2018-08-13T17:16:27.293Z,84.60
2018-08-13T17:18:55.419Z,84.90
2018-08-13T17:21:23.479Z,85.30
2018-08-13T17:23:51.542Z,85.60
2018-08-13T17:26:19.565Z,85.90
2018-08-13T17:28:47.696Z,86.30
2018-08-13T17:31:15.702Z,86.70
2018-08-13T17:33:43.837Z,86.80
2018-08-13T17:36:11.851Z,87.10
2018-08-13T17:38:39.907Z,87.80
2018-08-13T17:41:08.305Z,88.30
2018-08-13T17:43:36.479Z,88.70
2018-08-13T17:46:04.595Z,89.10
2018-08-13T17:48:32.643Z,89.60
2018-08-13T17:51:00.661Z,89.70
2018-08-13T17:53:28.690Z,89.80
2018-08-13T17:55:57.066Z,89.70
2018-08-13T17:58:25.143Z,89.80
2018-08-13T18:00:53.170Z,90.00
2018-08-13T18:03:21.217Z,89.80
2018-08-13T18:05:49.239Z,89.90
2018-08-13T18:08:17.379Z,89.80
2018-08-13T18:10:45.497Z,89.40
2018-08-13T18:13:13.565Z,89.60
2018-08-13T18:15:41.603Z,89.30
2018-08-13T18:18:09.696Z,89.40
2018-08-13T18:20:37.739Z,89.60
2018-08-13T18:23:05.795Z,90.00
2018-08-13T18:25:33.830Z,90.10
2018-08-13T18:28:01.893Z,90.20
2018-08-13T18:30:30.115Z,90.10
2018-08-13T18:32:58.129Z,90.10
2018-08-13T18:35:26.207Z,90.00
2018-08-13T18:37:54.237Z,89.70
2018-08-13T18:40:25.527Z,89.50
2018-08-13T18:42:53.554Z,89.50
2018-08-13T18:45:21.601Z,89.50
2018-08-13T18:47:50.021Z,89.60
2018-08-13T18:50:19.275Z,89.60
2018-08-13T18:52:47.411Z,90.10
2018-08-13T18:55:16.767Z,90.40
2018-08-13T18:57:45.182Z,90.70
2018-08-13T19:00:16.691Z,90.90
2018-08-13T19:02:44.808Z,91.20
2018-08-13T19:05:14.230Z,91.50
2018-08-13T19:07:43.155Z,91.70
2018-08-13T19:10:12.714Z,92.10
2018-08-13T19:12:40.893Z,91.60
2018-08-13T19:15:14.315Z,91.80
2018-08-13T19:17:42.346Z,91.90
2018-08-13T19:20:11.876Z,92.00
2018-08-13T19:22:40.038Z,92.10
2018-08-13T19:25:11.502Z,91.80
2018-08-13T19:27:39.619Z,91.80
2018-08-13T19:30:08.724Z,91.30
2018-08-13T19:32:37.166Z,91.10
2018-08-13T19:35:06.352Z,91.00
2018-08-13T19:37:34.419Z,90.90
2018-08-13T19:40:02.476Z,90.90
2018-08-13T19:42:30.505Z,91.00
2018-08-13T19:44:58.564Z,91.30
2018-08-13T19:47:26.595Z,90.90
2018-08-13T19:49:54.690Z,90.80
2018-08-13T19:52:22.712Z,90.80
2018-08-13T19:54:50.815Z,90.90
2018-08-13T19:57:18.862Z,90.90
2018-08-13T19:59:46.911Z,91.00
2018-08-13T20:02:14.944Z,91.40
2018-08-13T20:04:42.983Z,91.10
2018-08-13T20:07:11.033Z,91.10
2018-08-13T20:09:39.105Z,91.20
2018-08-13T20:12:07.137Z,91.10
2018-08-13T20:14:35.175Z,91.10
2018-08-13T20:17:03.206Z,91.20
2018-08-13T20:19:31.314Z,91.30
2018-08-13T20:21:59.322Z,91.50
2018-08-13T20:24:27.363Z,92.10
2018-08-13T20:26:55.398Z,91.90
2018-08-13T20:29:23.481Z,92.10
2018-08-13T20:31:51.521Z,92.30
2018-08-13T20:34:19.550Z,92.50
2018-08-13T20:36:47.586Z,92.60
2018-08-13T20:39:16.065Z,92.90
2018-08-13T20:41:44.107Z,93.60
2018-08-13T20:44:12.422Z,93.20
2018-08-13T20:46:41.307Z,93.40
2018-08-13T20:49:10.409Z,93.60
2018-08-13T20:51:38.463Z,93.70
2018-08-13T20:54:07.073Z,93.90
2018-08-13T20:56:35.231Z,94.00
2018-08-13T20:59:03.495Z,94.10
2018-08-13T21:01:31.995Z,94.30
2018-08-13T21:04:00.019Z,94.20
2018-08-13T21:06:28.055Z,94.30
2018-08-13T21:08:56.158Z,94.40
2018-08-13T21:11:24.167Z,94.50
2018-08-13T21:13:52.204Z,94.60
2018-08-13T21:16:20.256Z,94.80
2018-08-13T21:18:48.278Z,94.90
2018-08-13T21:21:16.338Z,94.90
2018-08-13T21:23:44.387Z,95.10
2018-08-13T21:26:12.447Z,95.30
2018-08-13T21:28:40.479Z,95.30
2018-08-13T21:31:08.532Z,95.40
2018-08-13T21:33:36.554Z,95.50
2018-08-13T21:36:04.622Z,95.50
2018-08-13T21:38:32.664Z,95.70
2018-08-13T21:41:00.707Z,95.70
2018-08-13T21:43:28.740Z,95.70
2018-08-13T21:45:56.781Z,95.70
2018-08-13T21:48:24.831Z,95.60
2018-08-13T21:50:52.861Z,95.60
2018-08-13T21:53:20.895Z,95.70
2018-08-13T21:55:49.038Z,95.80
2018-08-13T21:58:17.069Z,95.90
2018-08-13T22:00:50.426Z,96.00
2018-08-13T22:03:18.466Z,96.00
2018-08-13T22:05:46.489Z,96.00
2018-08-13T22:08:14.601Z,96.20
2018-08-13T22:10:42.648Z,96.30
2018-08-13T22:13:10.691Z,96.70
2018-08-13T22:15:38.808Z,96.50
2018-08-13T22:18:08.118Z,96.70
2018-08-13T22:20:36.685Z,96.90
2018-08-13T22:23:05.897Z,96.90
2018-08-13T22:25:43.373Z,96.90
2018-08-13T22:28:12.585Z,96.80
2018-08-13T22:30:40.653Z,96.80
2018-08-13T22:33:09.739Z,96.90
2018-08-13T22:35:37.809Z,96.80
2018-08-13T22:38:06.301Z,96.80
2018-08-13T22:40:34.343Z,96.80
2018-08-13T22:43:02.476Z,96.90
2018-08-13T22:45:30.513Z,97.10
2018-08-13T22:47:58.575Z,97.30
2018-08-13T22:50:26.602Z,97.30
2018-08-13T22:52:54.710Z,97.70
2018-08-13T22:55:22.752Z,98.00
2018-08-13T22:57:50.802Z,98.10
2018-08-13T23:00:19.957Z,98.20
2018-08-13T23:02:48.748Z,98.20
2018-08-13T23:05:18.270Z,98.20
2018-08-13T23:07:46.402Z,98.30
2018-08-13T23:10:16.370Z,98.70
2018-08-13T23:12:44.680Z,98.40
2018-08-13T23:15:14.212Z,98.50
2018-08-13T23:17:42.909Z,98.50
2018-08-13T23:20:13.219Z,98.50
2018-08-13T23:22:47.322Z,98.90
2018-08-13T23:25:15.507Z,98.60
2018-08-13T23:30:18.158Z,98.70
2018-08-13T23:32:48.205Z,98.70
2018-08-13T23:35:17.103Z,98.50
2018-08-13T23:37:45.147Z,98.50
2018-08-13T23:40:13.248Z,99.00
2018-08-13T23:42:41.318Z,98.70
2018-08-13T23:45:11.323Z,98.80
2018-08-13T23:47:39.382Z,98.90
2018-08-13T23:50:09.208Z,99.10
2018-08-13T23:52:37.790Z,99.20
2018-08-13T23:55:07.006Z,99.30
2018-08-13T23:57:35.079Z,99.40
